Time;durP1;ratioP1;P1;durP2;ratioP2;P2;SDS_P1;SDS_P2;PMS_P1;PMS_P2;Temp;Humidity;BMP_temperature;BMP_pressure;BME280_temperature;BME280_humidity;BME280_pressure;Samples;Min_cycle;Max_cycle;Signal;HPM_P1;HPM_P2
2022/01/09 00:00:43;;;;;;;1.05;0.50;;;;;;;;;;5078439;28;20016;-56
2022/01/09 00:03:09;;;;;;;1.52;0.60;;;;;;;;;;5079224;28;20742;-51
2022/01/09 00:05:36;;;;;;;1.90;0.80;;;;;;;;;;5081242;28;20037;-49
2022/01/09 00:08:02;;;;;;;0.70;0.40;;;;;;;;;;5078366;28;20665;-51
2022/01/09 00:10:30;;;;;;;0.90;0.68;;;;;;;;;;5081313;28;20020;-47
2022/01/09 00:12:56;;;;;;;1.02;0.68;;;;;;;;;;5079928;28;20469;-49
2022/01/09 00:15:22;;;;;;;2.45;0.50;;;;;;;;;;5081908;28;20073;-47
2022/01/09 00:17:48;;;;;;;0.70;0.47;;;;;;;;;;5078154;28;20092;-47
2022/01/09 00:20:14;;;;;;;2.05;0.52;;;;;;;;;;5080266;28;20043;-48
2022/01/09 00:22:45;;;;;;;0.75;0.70;;;;;;;;;;5081004;28;20077;-55
2022/01/09 00:25:12;;;;;;;2.35;0.85;;;;;;;;;;5079306;28;20013;-48
2022/01/09 00:27:38;;;;;;;0.77;0.50;;;;;;;;;;5079760;28;20052;-48
2022/01/09 00:30:05;;;;;;;0.88;0.40;;;;;;;;;;5080347;28;20111;-48
2022/01/09 00:32:30;;;;;;;1.67;0.50;;;;;;;;;;5079061;28;20419;-47
2022/01/09 00:34:56;;;;;;;0.55;0.50;;;;;;;;;;5080339;28;20028;-47
2022/01/09 00:37:22;;;;;;;0.80;0.40;;;;;;;;;;5070527;28;20045;-47
2022/01/09 00:39:48;;;;;;;1.05;0.60;;;;;;;;;;5060422;28;20770;-47
2022/01/09 00:42:14;;;;;;;1.33;0.40;;;;;;;;;;5059273;28;20043;-46
2022/01/09 00:44:41;;;;;;;1.38;0.65;;;;;;;;;;5060775;28;20032;-56
2022/01/09 00:47:06;;;;;;;0.73;0.50;;;;;;;;;;5059226;28;20097;-46
2022/01/09 00:49:32;;;;;;;0.77;0.50;;;;;;;;;;5054848;28;20033;-47
2022/01/09 00:51:58;;;;;;;0.63;0.38;;;;;;;;;;5051173;28;20039;-47
2022/01/09 00:54:24;;;;;;;0.63;0.40;;;;;;;;;;5052269;28;20036;-48
2022/01/09 00:56:50;;;;;;;0.52;0.35;;;;;;;;;;5051040;28;20040;-49
2022/01/09 00:59:16;;;;;;;0.50;0.30;;;;;;;;;;5052916;28;20104;-48
2022/01/09 01:01:42;;;;;;;0.47;0.40;;;;;;;;;;5071691;28;20021;-56
2022/01/09 01:04:08;;;;;;;0.93;0.50;;;;;;;;;;5072327;28;20016;-50
2022/01/09 01:06:34;;;;;;;0.70;0.40;;;;;;;;;;5071057;28;20040;-47
2022/01/09 01:09:00;;;;;;;0.80;0.50;;;;;;;;;;5053024;28;20028;-47
2022/01/09 01:11:26;;;;;;;1.08;0.60;;;;;;;;;;5071824;28;20021;-47
2022/01/09 01:13:52;;;;;;;0.40;0.40;;;;;;;;;;5070982;28;20519;-47
2022/01/09 01:16:18;;;;;;;0.98;0.40;;;;;;;;;;5071384;28;20024;-47
2022/01/09 01:18:45;;;;;;;0.63;0.40;;;;;;;;;;5070510;28;20025;-54
2022/01/09 01:21:11;;;;;;;1.00;0.65;;;;;;;;;;5071522;28;20028;-47
2022/01/09 01:23:37;;;;;;;0.85;0.40;;;;;;;;;;5064846;28;20374;-47
2022/01/09 01:26:04;;;;;;;1.25;0.40;;;;;;;;;;5050784;28;20096;-48
2022/01/09 01:28:33;;;;;;;1.23;0.68;;;;;;;;;;5071414;28;20507;-47
2022/01/09 01:30:59;;;;;;;0.63;0.40;;;;;;;;;;5070700;28;20078;-46
2022/01/09 01:33:25;;;;;;;0.43;0.30;;;;;;;;;;5071398;28;20077;-46
2022/01/09 01:35:52;;;;;;;0.30;0.30;;;;;;;;;;5070700;28;20024;-47
2022/01/09 01:38:18;;;;;;;0.55;0.55;;;;;;;;;;5052013;28;20044;-47
2022/01/09 01:40:44;;;;;;;0.55;0.40;;;;;;;;;;5050765;28;20067;-55
2022/01/09 01:43:10;;;;;;;1.38;0.40;;;;;;;;;;5051413;28;20040;-47
2022/01/09 01:45:36;;;;;;;0.70;0.30;;;;;;;;;;5062856;28;20040;-47
2022/01/09 01:48:06;;;;;;;0.43;0.30;;;;;;;;;;5055447;28;20099;-47
2022/01/09 01:50:36;;;;;;;0.73;0.73;;;;;;;;;;5055365;28;20115;-47
2022/01/09 01:53:05;;;;;;;0.57;0.40;;;;;;;;;;5054648;28;20637;-47
2022/01/09 01:55:36;;;;;;;0.80;0.55;;;;;;;;;;5066496;28;20025;-49
2022/01/09 01:58:02;;;;;;;0.30;0.30;;;;;;;;;;5074569;28;20035;-47
2022/01/09 02:00:28;;;;;;;0.50;0.30;;;;;;;;;;5075231;28;20466;-47
2022/01/09 02:02:54;;;;;;;0.40;0.30;;;;;;;;;;5073488;28;20041;-47
2022/01/09 02:05:20;;;;;;;0.30;0.30;;;;;;;;;;5071751;28;20449;-48
2022/01/09 02:07:46;;;;;;;0.35;0.30;;;;;;;;;;5053888;28;20029;-58
2022/01/09 02:10:12;;;;;;;0.50;0.30;;;;;;;;;;5055152;28;20071;-47
2022/01/09 02:12:40;;;;;;;1.30;0.82;;;;;;;;;;5055042;28;20108;-50
2022/01/09 02:15:26;;;;;;;0.50;0.30;;;;;;;;;;5065945;28;20079;-49
2022/01/09 02:17:52;;;;;;;0.28;0.28;;;;;;;;;;5073829;28;20032;-49
2022/01/09 02:20:18;;;;;;;0.43;0.30;;;;;;;;;;5067415;28;20052;-48
2022/01/09 02:22:44;;;;;;;0.75;0.38;;;;;;;;;;5071435;28;20355;-56
2022/01/09 02:25:11;;;;;;;0.75;0.30;;;;;;;;;;5054971;28;20025;-49
2022/01/09 02:27:37;;;;;;;0.40;0.30;;;;;;;;;;5054705;28;20025;-48
2022/01/09 02:30:05;;;;;;;0.30;0.28;;;;;;;;;;5054182;28;20029;-46
2022/01/09 02:32:31;;;;;;;0.35;0.25;;;;;;;;;;5054343;28;20028;-49
2022/01/09 02:34:57;;;;;;;0.30;0.30;;;;;;;;;;5060405;28;20093;-47
2022/01/09 02:37:23;;;;;;;0.45;0.22;;;;;;;;;;5074276;28;20093;-48
2022/01/09 02:39:49;;;;;;;0.77;0.35;;;;;;;;;;5073272;28;20485;-51
2022/01/09 02:42:27;;;;;;;0.30;0.20;;;;;;;;;;5074436;28;20074;-47
2022/01/09 02:44:55;;;;;;;0.28;0.28;;;;;;;;;;5073825;28;20086;-49
2022/01/09 02:47:21;;;;;;;0.30;0.30;;;;;;;;;;5048683;28;20075;-47
2022/01/09 02:49:50;;;;;;;0.20;0.20;;;;;;;;;;5060840;28;20753;-56
2022/01/09 02:55:12;;;;;;;0.38;0.30;;;;;;;;;;5037349;28;20029;-49
2022/01/09 02:57:39;;;;;;;0.57;0.40;;;;;;;;;;5054081;28;20068;-48
2022/01/09 03:00:09;;;;;;;0.30;0.30;;;;;;;;;;5053250;28;20021;-47
2022/01/09 03:02:35;;;;;;;0.10;0.10;;;;;;;;;;5053843;28;20490;-47
2022/01/09 03:05:01;;;;;;;0.30;0.20;;;;;;;;;;5062706;28;20032;-48
2022/01/09 03:07:27;;;;;;;0.40;0.30;;;;;;;;;;5073651;28;20041;-48
2022/01/09 03:09:53;;;;;;;0.25;0.20;;;;;;;;;;5073148;28;20035;-50
2022/01/09 03:12:19;;;;;;;0.50;0.20;;;;;;;;;;5073853;28;20059;-52
2022/01/09 03:14:46;;;;;;;1.20;0.40;;;;;;;;;;5066203;28;20023;-55
2022/01/09 03:17:12;;;;;;;0.20;0.20;;;;;;;;;;5053417;28;20090;-49
2022/01/09 03:19:38;;;;;;;0.20;0.20;;;;;;;;;;5053895;28;20029;-47
2022/01/09 03:22:04;;;;;;;0.30;0.30;;;;;;;;;;5064733;28;20037;-47
2022/01/09 03:24:30;;;;;;;0.32;0.20;;;;;;;;;;5060068;28;20017;-48
2022/01/09 03:26:56;;;;;;;0.70;0.60;;;;;;;;;;5052285;28;20459;-48
2022/01/09 03:29:22;;;;;;;0.45;0.30;;;;;;;;;;5053605;28;20051;-49
2022/01/09 03:31:48;;;;;;;0.10;0.10;;;;;;;;;;5053056;28;20027;-56
2022/01/09 03:34:14;;;;;;;0.52;0.30;;;;;;;;;;5053495;28;20382;-47
2022/01/09 03:36:40;;;;;;;0.63;0.30;;;;;;;;;;5053021;28;20158;-49
2022/01/09 03:39:06;;;;;;;0.47;0.47;;;;;;;;;;5052457;28;20096;-48
2022/01/09 03:41:32;;;;;;;0.20;0.10;;;;;;;;;;5053560;28;20021;-47
2022/01/09 03:43:58;;;;;;;1.45;0.43;;;;;;;;;;5069153;28;20024;-47
2022/01/09 03:46:24;;;;;;;0.80;0.30;;;;;;;;;;5036086;28;20547;-48
2022/01/09 03:48:50;;;;;;;0.30;0.20;;;;;;;;;;5052399;28;20029;-49
2022/01/09 03:51:16;;;;;;;0.38;0.20;;;;;;;;;;5063728;28;20029;-48
2022/01/09 03:53:42;;;;;;;0.22;0.22;;;;;;;;;;5072913;28;20355;-48
2022/01/09 03:56:08;;;;;;;0.75;0.30;;;;;;;;;;5072175;28;20028;-48
2022/01/09 03:58:36;;;;;;;0.20;0.20;;;;;;;;;;5073051;28;20017;-47
2022/01/09 04:01:03;;;;;;;0.20;0.20;;;;;;;;;;5071272;28;20108;-47
2022/01/09 04:03:29;;;;;;;0.50;0.30;;;;;;;;;;5069736;28;20033;-49
2022/01/09 04:06:00;;;;;;;1.65;0.38;;;;;;;;;;5052040;28;20044;-48
2022/01/09 04:08:26;;;;;;;0.20;0.20;;;;;;;;;;5052606;28;20439;-48
2022/01/09 04:10:52;;;;;;;0.30;0.30;;;;;;;;;;5066830;28;20107;-49
2022/01/09 04:13:18;;;;;;;0.10;0.10;;;;;;;;;;5072754;28;20081;-47
2022/01/09 04:15:49;;;;;;;0.20;0.20;;;;;;;;;;5072360;28;20031;-47
2022/01/09 04:18:16;;;;;;;0.10;0.10;;;;;;;;;;5053113;28;20047;-47
2022/01/09 04:20:42;;;;;;;0.13;0.13;;;;;;;;;;5072276;28;20016;-48
2022/01/09 04:23:08;;;;;;;0.10;0.10;;;;;;;;;;5068802;28;20016;-48
2022/01/09 04:25:34;;;;;;;1.17;0.22;;;;;;;;;;5052308;28;20499;-47
2022/01/09 04:28:00;;;;;;;0.30;0.20;;;;;;;;;;5051672;28;20033;-47
2022/01/09 04:30:26;;;;;;;0.43;0.43;;;;;;;;;;5052568;28;20021;-47
2022/01/09 04:32:52;;;;;;;0.30;0.30;;;;;;;;;;5051581;28;20021;-47
2022/01/09 04:35:18;;;;;;;0.30;0.20;;;;;;;;;;5052206;28;20024;-48
2022/01/09 04:37:46;;;;;;;0.30;0.30;;;;;;;;;;5066387;28;20075;-47
2022/01/09 04:40:14;;;;;;;0.30;0.30;;;;;;;;;;5054714;28;20044;-48
2022/01/09 04:42:44;;;;;;;0.10;0.10;;;;;;;;;;5052128;28;20029;-48
2022/01/09 04:45:12;;;;;;;0.20;0.20;;;;;;;;;;5051484;28;20020;-48
2022/01/09 04:47:41;;;;;;;0.10;0.10;;;;;;;;;;5052041;28;20064;-49
2022/01/09 04:50:11;;;;;;;0.35;0.30;;;;;;;;;;5051327;28;20021;-50
2022/01/09 04:52:39;;;;;;;0.85;0.30;;;;;;;;;;5068476;28;20031;-48
2022/01/09 04:55:05;;;;;;;0.20;0.20;;;;;;;;;;5070123;28;20035;-47
2022/01/09 04:57:31;;;;;;;0.20;0.20;;;;;;;;;;5057725;28;20029;-47
2022/01/09 04:59:57;;;;;;;0.20;0.20;;;;;;;;;;5062849;28;20082;-47
2022/01/09 05:02:23;;;;;;;0.20;0.20;;;;;;;;;;5072220;28;20373;-46
2022/01/09 05:04:49;;;;;;;0.10;0.10;;;;;;;;;;5061041;28;20459;-56
2022/01/09 05:07:15;;;;;;;1.13;0.20;;;;;;;;;;5033498;28;20490;-46
2022/01/09 05:09:41;;;;;;;0.15;0.15;;;;;;;;;;5051813;28;20386;-48
2022/01/09 05:12:07;;;;;;;0.40;0.10;;;;;;;;;;5051262;28;20027;-48
2022/01/09 05:14:33;;;;;;;0.98;0.20;;;;;;;;;;5059742;28;20031;-47
2022/01/09 05:16:59;;;;;;;0.25;0.20;;;;;;;;;;5070761;28;20472;-47
2022/01/09 05:19:28;;;;;;;0.10;0.10;;;;;;;;;;5065948;28;20029;-49
2022/01/09 05:21:55;;;;;;;0.30;0.10;;;;;;;;;;5061480;28;20074;-49
2022/01/09 05:24:21;;;;;;;0.50;0.10;;;;;;;;;;5058854;28;20100;-48
2022/01/09 05:26:47;;;;;;;0.10;0.10;;;;;;;;;;5051238;28;20037;-59
2022/01/09 05:29:13;;;;;;;0.75;0.20;;;;;;;;;;5057013;28;20099;-49
2022/01/09 05:31:39;;;;;;;0.35;0.20;;;;;;;;;;5060496;28;20550;-48
2022/01/09 05:34:05;;;;;;;0.30;0.10;;;;;;;;;;5059759;28;20367;-48
2022/01/09 05:36:32;;;;;;;0.32;0.15;;;;;;;;;;5058989;28;20457;-54
2022/01/09 05:38:58;;;;;;;0.45;0.20;;;;;;;;;;5058443;28;20036;-47
2022/01/09 05:41:24;;;;;;;0.30;0.20;;;;;;;;;;5058064;28;20024;-47
2022/01/09 05:43:50;;;;;;;0.52;0.20;;;;;;;;;;5060591;28;20450;-55
2022/01/09 05:46:16;;;;;;;0.15;0.15;;;;;;;;;;5058722;28;20029;-47
2022/01/09 05:48:42;;;;;;;0.20;0.20;;;;;;;;;;5060643;28;20436;-47
2022/01/09 05:51:08;;;;;;;0.20;0.20;;;;;;;;;;5059851;28;20025;-48
2022/01/09 05:53:34;;;;;;;0.25;0.20;;;;;;;;;;5057839;28;20021;-54
2022/01/09 05:56:00;;;;;;;0.20;0.20;;;;;;;;;;5060171;28;20469;-47
2022/01/09 05:58:26;;;;;;;0.10;0.10;;;;;;;;;;5061808;28;20024;-48
2022/01/09 06:00:52;;;;;;;0.20;0.20;;;;;;;;;;5071155;28;20481;-57
2022/01/09 06:03:18;;;;;;;0.30;0.20;;;;;;;;;;5071081;28;20123;-49
2022/01/09 06:05:44;;;;;;;0.20;0.10;;;;;;;;;;5071565;28;20025;-47
2022/01/09 06:08:10;;;;;;;0.30;0.30;;;;;;;;;;5070246;28;20019;-48
2022/01/09 06:10:36;;;;;;;0.28;0.20;;;;;;;;;;5070720;28;20039;-48
2022/01/09 06:13:02;;;;;;;0.65;0.20;;;;;;;;;;5070428;28;20013;-48
2022/01/09 06:15:28;;;;;;;1.00;0.10;;;;;;;;;;5052776;28;20096;-48
2022/01/09 06:17:54;;;;;;;0.63;0.30;;;;;;;;;;5050056;28;20029;-48
2022/01/09 06:20:20;;;;;;;0.63;0.30;;;;;;;;;;5033277;28;20033;-45
2022/01/09 06:22:46;;;;;;;0.30;0.20;;;;;;;;;;5051134;28;20021;-53
2022/01/09 06:25:12;;;;;;;0.15;0.15;;;;;;;;;;5069897;28;20051;-45
2022/01/09 06:27:38;;;;;;;0.10;0.10;;;;;;;;;;5070100;28;20032;-46
2022/01/09 06:30:05;;;;;;;0.68;0.30;;;;;;;;;;5070388;28;20071;-46
2022/01/09 06:32:31;;;;;;;0.22;0.13;;;;;;;;;;5071165;28;20461;-47
2022/01/09 06:34:57;;;;;;;1.23;0.40;;;;;;;;;;5072321;28;20029;-48
2022/01/09 06:37:24;;;;;;;2.00;0.20;;;;;;;;;;5064723;28;20481;-47
2022/01/09 06:39:50;;;;;;;1.25;0.52;;;;;;;;;;5054155;28;20061;-47
2022/01/09 06:42:16;;;;;;;0.50;0.22;;;;;;;;;;5061829;28;20112;-48
2022/01/09 06:44:42;;;;;;;0.45;0.20;;;;;;;;;;5074558;28;20025;-48
2022/01/09 06:47:08;;;;;;;0.30;0.20;;;;;;;;;;5063160;28;20414;-47
2022/01/09 06:49:35;;;;;;;0.20;0.20;;;;;;;;;;5054388;28;20021;-46
2022/01/09 06:52:01;;;;;;;0.20;0.20;;;;;;;;;;5053297;28;20025;-48
2022/01/09 06:54:27;;;;;;;0.10;0.10;;;;;;;;;;5055542;28;20025;-47
2022/01/09 06:56:54;;;;;;;0.20;0.20;;;;;;;;;;5073039;28;20521;-57
2022/01/09 06:59:20;;;;;;;0.20;0.20;;;;;;;;;;5073752;28;20036;-51
2022/01/09 07:01:46;;;;;;;0.47;0.20;;;;;;;;;;5072923;28;20036;-48
2022/01/09 07:04:12;;;;;;;0.47;0.20;;;;;;;;;;5073011;28;20017;-48
2022/01/09 07:06:38;;;;;;;0.20;0.20;;;;;;;;;;5074080;28;20560;-49
2022/01/09 07:09:05;;;;;;;0.32;0.20;;;;;;;;;;5073134;28;20036;-48
2022/01/09 07:11:31;;;;;;;0.17;0.17;;;;;;;;;;5073565;28;20033;-50
2022/01/09 07:13:57;;;;;;;1.30;0.20;;;;;;;;;;5073091;28;20024;-49
2022/01/09 07:16:23;;;;;;;1.08;0.57;;;;;;;;;;5073899;28;20039;-47
2022/01/09 07:18:49;;;;;;;1.45;0.20;;;;;;;;;;5074168;28;20020;-48
2022/01/09 07:21:15;;;;;;;0.38;0.20;;;;;;;;;;5072937;28;20042;-47
2022/01/09 07:23:41;;;;;;;0.60;0.25;;;;;;;;;;5063150;28;20024;-47
2022/01/09 07:26:07;;;;;;;1.33;0.40;;;;;;;;;;5059571;28;20116;-48
2022/01/09 07:28:33;;;;;;;0.17;0.10;;;;;;;;;;5073640;28;20103;-48
2022/01/09 07:30:59;;;;;;;0.10;0.10;;;;;;;;;;5071927;28;20099;-47
2022/01/09 07:33:25;;;;;;;1.08;0.10;;;;;;;;;;5073467;28;20031;-49
2022/01/09 07:35:51;;;;;;;2.15;0.32;;;;;;;;;;5073008;28;20024;-49
2022/01/09 07:38:17;;;;;;;0.57;0.20;;;;;;;;;;5058448;28;20083;-47
2022/01/09 07:40:43;;;;;;;0.80;0.20;;;;;;;;;;5059885;28;20028;-49
2022/01/09 07:43:09;;;;;;;0.80;0.30;;;;;;;;;;5056176;28;20490;-48
2022/01/09 07:45:35;;;;;;;1.67;0.13;;;;;;;;;;5058412;28;20028;-48
2022/01/09 07:48:02;;;;;;;0.50;0.30;;;;;;;;;;5059502;28;20024;-50
2022/01/09 07:50:28;;;;;;;0.77;0.30;;;;;;;;;;5061397;28;20470;-48
2022/01/09 07:52:55;;;;;;;4.13;0.40;;;;;;;;;;5042684;28;20120;-55
2022/01/09 07:55:22;;;;;;;7.28;0.80;;;;;;;;;;5060556;28;20419;-52
2022/01/09 07:57:48;;;;;;;3.97;0.80;;;;;;;;;;5060384;28;20032;-51
2022/01/09 08:00:15;;;;;;;1.55;0.20;;;;;;;;;;5060962;28;20032;-48
2022/01/09 08:02:41;;;;;;;0.75;0.30;;;;;;;;;;5060252;28;20027;-48
2022/01/09 08:05:07;;;;;;;2.78;0.32;;;;;;;;;;5059612;28;20021;-51
2022/01/09 08:07:33;;;;;;;0.75;0.40;;;;;;;;;;5060892;28;20040;-48
2022/01/09 08:10:00;;;;;;;1.05;0.55;;;;;;;;;;5059734;28;20359;-50
2022/01/09 08:12:26;;;;;;;3.28;0.30;;;;;;;;;;5042186;28;20017;-48
2022/01/09 08:14:52;;;;;;;2.15;0.38;;;;;;;;;;5061830;28;20024;-48
2022/01/09 08:17:18;;;;;;;2.80;0.40;;;;;;;;;;5057953;28;20111;-49
2022/01/09 08:19:44;;;;;;;9.27;0.65;;;;;;;;;;5061204;28;20052;-53
2022/01/09 08:22:10;;;;;;;1.55;0.30;;;;;;;;;;5058323;28;20067;-49
2022/01/09 08:24:37;;;;;;;0.93;0.65;;;;;;;;;;5058137;28;20017;-51
2022/01/09 08:27:04;;;;;;;2.20;0.40;;;;;;;;;;5059237;28;20377;-51
2022/01/09 08:29:30;;;;;;;1.83;0.75;;;;;;;;;;5061507;28;20082;-52
2022/01/09 08:31:56;;;;;;;2.78;0.60;;;;;;;;;;5057865;28;20021;-56
2022/01/09 08:34:22;;;;;;;1.15;0.43;;;;;;;;;;5060489;28;20036;-51
2022/01/09 08:36:48;;;;;;;0.63;0.20;;;;;;;;;;5060419;28;20111;-52
2022/01/09 08:39:14;;;;;;;4.35;0.65;;;;;;;;;;5058622;28;20079;-50
2022/01/09 08:41:40;;;;;;;2.47;0.55;;;;;;;;;;5059329;28;20095;-49
2022/01/09 08:44:07;;;;;;;0.88;0.35;;;;;;;;;;5056963;28;20035;-49
2022/01/09 08:46:34;;;;;;;2.83;0.50;;;;;;;;;;5060113;28;20049;-50
2022/01/09 08:49:00;;;;;;;0.70;0.35;;;;;;;;;;5058605;28;20438;-50
2022/01/09 08:51:27;;;;;;;1.65;0.73;;;;;;;;;;5060018;28;20021;-51
2022/01/09 08:53:53;;;;;;;1.30;0.38;;;;;;;;;;5061787;28;20031;-51
2022/01/09 08:56:23;;;;;;;1.27;0.30;;;;;;;;;;5059926;28;20028;-52
2022/01/09 08:58:49;;;;;;;0.55;0.40;;;;;;;;;;5060485;28;20416;-51
2022/01/09 09:01:16;;;;;;;2.80;0.50;;;;;;;;;;5058048;28;20139;-49
2022/01/09 09:03:42;;;;;;;1.38;0.40;;;;;;;;;;5059091;28;20681;-50
2022/01/09 09:06:17;;;;;;;2.53;0.60;;;;;;;;;;5057723;28;20033;-49
2022/01/09 09:08:43;;;;;;;2.40;0.60;;;;;;;;;;5059011;28;20397;-48
2022/01/09 09:11:10;;;;;;;1.25;0.63;;;;;;;;;;5058399;28;20107;-47
2022/01/09 09:13:37;;;;;;;3.28;0.88;;;;;;;;;;5060422;28;20031;-46
2022/01/09 09:16:03;;;;;;;2.05;0.47;;;;;;;;;;5055149;28;20104;-47
2022/01/09 09:18:29;;;;;;;3.40;0.50;;;;;;;;;;5051640;28;20040;-46
2022/01/09 09:20:55;;;;;;;4.70;1.45;;;;;;;;;;5052786;28;20144;-55
2022/01/09 09:23:22;;;;;;;6.65;2.10;;;;;;;;;;5052349;28;20017;-47
2022/01/09 09:25:48;;;;;;;14.60;7.80;;;;;;;;;;5061516;28;20104;-47
2022/01/09 09:28:14;;;;;;;19.52;10.88;;;;;;;;;;5070038;28;20020;-49
2022/01/09 09:30:40;;;;;;;23.73;13.13;;;;;;;;;;5071504;28;20029;-47
2022/01/09 09:33:07;;;;;;;28.50;14.60;;;;;;;;;;5070803;28;20107;-48
2022/01/09 09:35:33;;;;;;;30.35;13.95;;;;;;;;;;5045507;28;20531;-48
2022/01/09 09:38:00;;;;;;;47.72;22.15;;;;;;;;;;5050393;28;20049;-59
2022/01/09 09:40:26;;;;;;;86.13;36.22;;;;;;;;;;5051592;28;20028;-48
2022/01/09 09:42:53;;;;;;;95.80;35.78;;;;;;;;;;5051400;28;20358;-52
2022/01/09 09:45:19;;;;;;;78.97;34.78;;;;;;;;;;5059201;28;20024;-48
2022/01/09 09:47:45;;;;;;;88.95;36.53;;;;;;;;;;5071091;28;20037;-47
2022/01/09 09:50:12;;;;;;;65.65;31.95;;;;;;;;;;5056129;28;20030;-48
2022/01/09 09:52:38;;;;;;;76.03;30.42;;;;;;;;;;5066817;28;20021;-57
2022/01/09 09:55:05;;;;;;;65.25;30.02;;;;;;;;;;5039907;28;20028;-51
2022/01/09 09:57:31;;;;;;;63.20;28.52;;;;;;;;;;5066734;28;20035;-49
2022/01/09 10:00:02;;;;;;;59.22;27.27;;;;;;;;;;5068620;28;20031;-49
2022/01/09 10:02:40;;;;;;;53.42;26.42;;;;;;;;;;5050847;28;20021;-53
2022/01/09 10:05:06;;;;;;;50.97;24.77;;;;;;;;;;5060399;28;20033;-49
2022/01/09 10:07:33;;;;;;;50.42;23.80;;;;;;;;;;5049616;28;20464;-49
2022/01/09 10:10:01;;;;;;;53.67;23.83;;;;;;;;;;5052894;28;20425;-55
2022/01/09 10:12:31;;;;;;;45.25;22.20;;;;;;;;;;5074524;28;20433;-50
2022/01/09 10:14:58;;;;;;;53.13;23.33;;;;;;;;;;5069417;28;20025;-56
2022/01/09 10:17:25;;;;;;;46.60;21.50;;;;;;;;;;5054544;28;20067;-49
2022/01/09 10:19:54;;;;;;;39.10;20.35;;;;;;;;;;5055066;28;20021;-50
2022/01/09 10:22:24;;;;;;;48.85;21.10;;;;;;;;;;5062776;28;20025;-49
2022/01/09 10:24:50;;;;;;;40.65;19.83;;;;;;;;;;5068949;28;20021;-52
2022/01/09 10:27:30;;;;;;;43.50;19.75;;;;;;;;;;5061391;28;20045;-47
2022/01/09 10:29:56;;;;;;;41.45;18.30;;;;;;;;;;5054361;28;20032;-48
2022/01/09 10:32:26;;;;;;;29.95;15.85;;;;;;;;;;5053818;28;20053;-48
2022/01/09 10:35:11;;;;;;;38.88;17.92;;;;;;;;;;5050424;28;20036;-61
2022/01/09 10:37:38;;;;;;;35.72;17.30;;;;;;;;;;5058966;28;20692;-62
2022/01/09 10:40:05;;;;;;;34.30;15.70;;;;;;;;;;5054404;28;20389;-60
2022/01/09 10:42:32;;;;;;;34.28;16.13;;;;;;;;;;5065005;28;20098;-60
2022/01/09 10:45:15;;;;;;;33.10;13.80;;;;;;;;;;5062613;28;20048;-60
2022/01/09 10:47:41;;;;;;;31.17;14.40;;;;;;;;;;5061136;28;20804;-60
2022/01/09 10:50:08;;;;;;;33.22;13.93;;;;;;;;;;5061570;28;20114;-59
2022/01/09 10:52:38;;;;;;;25.35;12.50;;;;;;;;;;5061891;28;20365;-59
2022/01/09 10:55:05;;;;;;;24.55;11.60;;;;;;;;;;5061357;28;20021;-59
2022/01/09 10:57:33;;;;;;;25.40;12.55;;;;;;;;;;5061844;28;20082;-53
2022/01/09 11:00:09;;;;;;;24.42;11.95;;;;;;;;;;5060548;28;20029;-62
2022/01/09 11:02:35;;;;;;;18.77;10.27;;;;;;;;;;5061157;28;20484;-59
2022/01/09 11:05:01;;;;;;;21.05;10.05;;;;;;;;;;5060984;28;20477;-60
2022/01/09 11:07:27;;;;;;;20.30;10.20;;;;;;;;;;5062952;28;20481;-61
2022/01/09 11:09:55;;;;;;;19.67;10.73;;;;;;;;;;5061984;28;20087;-63
2022/01/09 11:12:22;;;;;;;25.27;10.75;;;;;;;;;;5062617;28;20035;-62
2022/01/09 11:14:49;;;;;;;18.95;10.35;;;;;;;;;;5060595;28;20033;-61
2022/01/09 11:17:20;;;;;;;20.42;9.50;;;;;;;;;;5044596;28;20426;-62
2022/01/09 11:19:46;;;;;;;20.83;9.63;;;;;;;;;;5043359;28;20028;-61
2022/01/09 11:22:12;;;;;;;18.65;8.52;;;;;;;;;;5061938;28;20021;-60
2022/01/09 11:24:44;;;;;;;15.85;8.63;;;;;;;;;;5061837;28;20377;-60
2022/01/09 11:27:29;;;;;;;15.13;8.18;;;;;;;;;;5060655;28;20055;-59
2022/01/09 11:30:06;;;;;;;18.90;8.60;;;;;;;;;;5058730;28;20040;-60
2022/01/09 11:32:50;;;;;;;14.95;7.55;;;;;;;;;;5060181;28;20017;-61
2022/01/09 11:35:35;;;;;;;16.20;7.82;;;;;;;;;;5060182;28;20029;-60
2022/01/09 11:38:13;;;;;;;13.38;7.25;;;;;;;;;;5058768;28;20132;-63
2022/01/09 11:40:39;;;;;;;14.65;7.35;;;;;;;;;;5059480;28;20028;-60
2022/01/09 11:43:14;;;;;;;11.68;6.75;;;;;;;;;;5060272;28;20032;-55
2022/01/09 11:45:58;;;;;;;13.93;6.68;;;;;;;;;;5061330;28;20529;-53
2022/01/09 11:48:42;;;;;;;13.27;6.97;;;;;;;;;;5059185;28;20032;-56
2022/01/09 11:51:10;;;;;;;13.57;6.40;;;;;;;;;;5058427;28;20436;-56
2022/01/09 11:53:55;;;;;;;13.93;6.85;;;;;;;;;;5060656;28;20052;-57
2022/01/09 11:56:40;;;;;;;11.65;6.28;;;;;;;;;;5060019;28;20035;-58
2022/01/09 11:59:18;;;;;;;14.10;6.20;;;;;;;;;;5061285;28;20401;-59
2022/01/09 12:01:45;;;;;;;9.77;5.40;;;;;;;;;;5061876;28;20043;-58
2022/01/09 12:04:30;;;;;;;12.02;6.00;;;;;;;;;;5058283;28;20084;-58
2022/01/09 12:06:57;;;;;;;14.45;6.28;;;;;;;;;;5060426;28;20044;-54
2022/01/09 12:09:36;;;;;;;9.00;4.70;;;;;;;;;;5061292;28;20092;-51
2022/01/09 12:12:34;;;;;;;11.00;5.53;;;;;;;;;;5060357;28;20029;-61
2022/01/09 12:15:04;;;;;;;9.23;4.90;;;;;;;;;;5017774;28;20537;-57
2022/01/09 12:17:34;;;;;;;10.52;4.70;;;;;;;;;;5059190;28;20033;-57
2022/01/09 12:20:11;;;;;;;11.48;4.70;;;;;;;;;;5060404;28;20021;-61
2022/01/09 12:22:40;;;;;;;10.20;4.88;;;;;;;;;;5060211;28;20067;-56
2022/01/09 12:25:24;;;;;;;11.45;5.50;;;;;;;;;;5058850;28;20028;-52
2022/01/09 12:27:54;;;;;;;13.35;4.55;;;;;;;;;;5059522;28;20565;-59
2022/01/09 12:33:11;;;;;;;12.27;4.25;;;;;;;;;;5060033;28;20470;-57
2022/01/09 12:35:38;;;;;;;10.27;4.68;;;;;;;;;;5059632;28;20032;-52
2022/01/09 12:38:05;;;;;;;9.63;4.38;;;;;;;;;;5058475;28;20048;-52
2022/01/09 12:40:35;;;;;;;9.60;4.40;;;;;;;;;;5060693;28;20028;-58
2022/01/09 12:43:02;;;;;;;9.48;4.55;;;;;;;;;;5059701;28;20034;-60
2022/01/09 12:45:30;;;;;;;10.38;4.50;;;;;;;;;;5061121;28;20032;-55
2022/01/09 12:47:57;;;;;;;8.73;3.60;;;;;;;;;;5058574;28;20116;-51
2022/01/09 12:50:27;;;;;;;7.82;3.45;;;;;;;;;;5058935;28;20493;-51
2022/01/09 12:53:11;;;;;;;6.35;3.33;;;;;;;;;;5051544;28;20051;-52
2022/01/09 12:55:52;;;;;;;8.77;3.83;;;;;;;;;;5052925;28;20384;-52
2022/01/09 12:58:23;;;;;;;8.77;3.53;;;;;;;;;;5071074;28;20051;-50
2022/01/09 13:00:49;;;;;;;8.48;3.42;;;;;;;;;;5072137;28;20105;-47
2022/01/09 13:03:18;;;;;;;7.65;3.67;;;;;;;;;;5069939;28;20036;-53
2022/01/09 13:05:52;;;;;;;8.30;3.83;;;;;;;;;;5053709;28;20484;-56
2022/01/09 13:08:19;;;;;;;12.18;3.38;;;;;;;;;;5070941;28;20064;-55
2022/01/09 13:10:45;;;;;;;9.45;3.17;;;;;;;;;;5051150;28;20021;-52
2022/01/09 13:13:12;;;;;;;9.00;3.28;;;;;;;;;;5049672;28;20374;-53
2022/01/09 13:15:39;;;;;;;7.45;3.08;;;;;;;;;;5051680;28;20021;-50
2022/01/09 13:18:05;;;;;;;9.38;3.22;;;;;;;;;;5056746;28;20074;-54
2022/01/09 13:20:32;;;;;;;6.60;3.05;;;;;;;;;;5071577;28;20029;-52
2022/01/09 13:23:08;;;;;;;6.85;3.03;;;;;;;;;;5063407;28;20504;-49
2022/01/09 13:25:44;;;;;;;6.95;3.10;;;;;;;;;;5071675;28;20020;-55
2022/01/09 13:28:17;;;;;;;7.90;3.25;;;;;;;;;;5070414;28;20052;-52
2022/01/09 13:30:43;;;;;;;5.10;2.85;;;;;;;;;;5053860;28;20070;-50
2022/01/09 13:33:09;;;;;;;6.63;2.97;;;;;;;;;;5069667;28;20384;-52
2022/01/09 13:35:35;;;;;;;9.23;3.72;;;;;;;;;;5071040;28;20077;-52
2022/01/09 13:38:01;;;;;;;7.63;3.42;;;;;;;;;;5061341;28;20167;-61
2022/01/09 13:40:27;;;;;;;7.78;3.38;;;;;;;;;;5051305;28;20484;-50
2022/01/09 13:42:53;;;;;;;9.55;3.00;;;;;;;;;;5051197;28;20039;-51
2022/01/09 13:45:25;;;;;;;5.03;2.65;;;;;;;;;;5053817;28;20104;-55
2022/01/09 13:47:57;;;;;;;6.22;2.90;;;;;;;;;;5073974;28;20028;-52
2022/01/09 13:50:24;;;;;;;4.47;2.50;;;;;;;;;;5073796;28;20040;-51
2022/01/09 13:52:51;;;;;;;4.55;2.40;;;;;;;;;;5075449;28;20107;-52
2022/01/09 13:55:21;;;;;;;5.55;2.65;;;;;;;;;;5074315;28;20186;-60
2022/01/09 13:57:47;;;;;;;5.35;2.33;;;;;;;;;;5074262;28;20035;-51
2022/01/09 14:00:14;;;;;;;6.18;2.10;;;;;;;;;;5074617;28;20108;-53
2022/01/09 14:02:41;;;;;;;5.00;2.92;;;;;;;;;;5074318;28;20024;-50
2022/01/09 14:05:14;;;;;;;6.95;2.47;;;;;;;;;;5073141;28;20461;-49
2022/01/09 14:07:45;;;;;;;4.53;2.25;;;;;;;;;;5069900;28;20123;-52
2022/01/09 14:10:11;;;;;;;5.60;2.42;;;;;;;;;;5054539;28;20115;-52
2022/01/09 14:12:38;;;;;;;5.32;2.20;;;;;;;;;;5037175;28;20021;-52
2022/01/09 14:15:17;;;;;;;7.70;2.60;;;;;;;;;;5054810;28;20025;-61
2022/01/09 14:17:54;;;;;;;6.07;2.85;;;;;;;;;;5063787;28;20052;-51
2022/01/09 14:20:21;;;;;;;5.10;2.65;;;;;;;;;;5074162;28;20078;-53
2022/01/09 14:22:48;;;;;;;7.40;2.78;;;;;;;;;;5074580;28;20104;-51
2022/01/09 14:25:16;;;;;;;4.57;1.98;;;;;;;;;;5054124;28;20033;-51
2022/01/09 14:27:44;;;;;;;4.15;2.00;;;;;;;;;;5050323;28;20041;-49
2022/01/09 14:30:23;;;;;;;5.07;1.80;;;;;;;;;;5073988;28;20073;-53
2022/01/09 14:32:51;;;;;;;7.03;2.90;;;;;;;;;;5074591;28;20036;-55
2022/01/09 14:35:30;;;;;;;3.72;1.75;;;;;;;;;;5073792;28;20029;-54
2022/01/09 14:38:00;;;;;;;4.90;1.88;;;;;;;;;;5053746;28;20059;-51
2022/01/09 14:40:26;;;;;;;3.65;2.38;;;;;;;;;;5052610;28;20078;-54
2022/01/09 14:42:52;;;;;;;3.60;1.88;;;;;;;;;;5053212;28;20032;-50
2022/01/09 14:45:21;;;;;;;4.95;2.13;;;;;;;;;;5039816;28;20488;-54
2022/01/09 14:47:50;;;;;;;3.97;1.70;;;;;;;;;;5073197;28;20496;-51